createdAt,value
2015-03-26T00:00:02.655Z,94353
2015-03-26T00:00:21.343Z,94348
2015-03-26T00:00:39.843Z,94356
2015-03-26T00:00:58.407Z,94351
2015-03-26T00:01:16.985Z,94361
2015-03-26T00:01:35.595Z,94361
2015-03-26T00:01:54.019Z,94345
2015-03-26T00:02:12.690Z,94358
2015-03-26T00:02:31.222Z,94358
2015-03-26T00:02:49.784Z,94350
2015-03-26T00:03:08.365Z,94355
2015-03-26T00:03:26.818Z,94355
2015-03-26T00:03:45.584Z,94353
2015-03-26T00:04:04.180Z,94344
2015-03-26T00:04:22.602Z,94353
2015-03-26T00:04:40.961Z,94355
2015-03-26T00:04:59.745Z,94360
2015-03-26T00:05:18.214Z,94357
2015-03-26T00:05:37.058Z,94360
2015-03-26T00:05:55.763Z,94360
2015-03-26T00:06:14.232Z,94358
2015-03-26T00:06:32.622Z,94355
2015-03-26T00:06:51.122Z,94366
2015-03-26T00:07:09.702Z,94360
2015-03-26T00:07:28.156Z,94366
2015-03-26T00:07:46.702Z,94360
2015-03-26T00:08:05.126Z,94366
2015-03-26T00:08:23.751Z,94369
2015-03-26T00:08:42.220Z,94363
2015-03-26T00:09:01.004Z,94357
2015-03-26T00:09:19.536Z,94365
2015-03-26T00:09:38.051Z,94365
2015-03-26T00:09:56.772Z,94365
2015-03-26T00:10:15.803Z,94355
2015-03-26T00:10:34.178Z,94365
2015-03-26T00:10:53.194Z,94362
2015-03-26T00:11:11.884Z,94365
2015-03-26T00:11:30.603Z,94367
2015-03-26T00:11:49.291Z,94367
2015-03-26T00:12:07.714Z,94361
2015-03-26T00:12:26.074Z,94358
2015-03-26T00:12:44.464Z,94364
2015-03-26T00:13:03.201Z,94361
2015-03-26T00:13:21.763Z,94364
2015-03-26T00:13:40.310Z,94367
2015-03-26T00:13:58.781Z,94365
2015-03-26T00:14:17.484Z,94370
2015-03-26T00:14:36.047Z,94362
2015-03-26T00:14:54.500Z,94371
2015-03-26T00:15:13.064Z,94365
2015-03-26T00:15:31.549Z,94374
2015-03-26T00:15:50.002Z,94368
2015-03-26T00:16:08.802Z,94365
2015-03-26T00:16:27.177Z,94379
2015-03-26T00:16:45.552Z,94379
2015-03-26T00:17:03.944Z,94371
2015-03-26T00:17:22.429Z,94370
2015-03-26T00:17:40.929Z,94365
2015-03-26T00:17:59.510Z,94370
2015-03-26T00:18:17.478Z,94370
2015-03-26T00:18:36.072Z,94368
2015-03-26T00:18:55.057Z,94376
2015-03-26T00:19:13.888Z,94373
2015-03-26T00:19:32.310Z,94382
2015-03-26T00:19:50.903Z,94376
2015-03-26T00:20:09.357Z,94376
2015-03-26T00:20:28.654Z,94376
2015-03-26T00:20:47.217Z,94378
2015-03-26T00:21:05.828Z,94384
2015-03-26T00:21:24.438Z,94375
2015-03-26T00:21:43.188Z,94375
2015-03-26T00:22:01.628Z,94375
2015-03-26T00:22:20.097Z,94372
2015-03-26T00:22:38.628Z,94390
2015-03-26T00:22:57.206Z,94370
2015-03-26T00:23:15.834Z,94376
2015-03-26T00:23:34.240Z,94376
2015-03-26T00:23:52.725Z,94382
2015-03-26T00:24:11.149Z,94379
2015-03-26T00:24:29.727Z,94370
2015-03-26T00:24:48.149Z,94373
2015-03-26T00:25:06.932Z,94382
2015-03-26T00:25:25.510Z,94373
2015-03-26T00:25:43.885Z,94376
2015-03-26T00:26:02.418Z,94376
2015-03-26T00:26:20.918Z,94382
2015-03-26T00:26:39.403Z,94374
2015-03-26T00:26:57.840Z,94382
2015-03-26T00:27:16.703Z,94379
2015-03-26T00:27:35.062Z,94382
2015-03-26T00:27:53.687Z,94388
2015-03-26T00:28:12.173Z,94377
2015-03-26T00:28:30.861Z,94374
2015-03-26T00:28:49.548Z,94380
2015-03-26T00:29:08.129Z,94383
2015-03-26T00:29:26.739Z,94380
2015-03-26T00:29:45.333Z,94383
2015-03-26T00:30:04.131Z,94378
2015-03-26T00:30:22.850Z,94389
2015-03-26T00:30:41.350Z,94389
2015-03-26T00:31:00.194Z,94386
2015-03-26T00:31:18.993Z,94383
2015-03-26T00:31:37.587Z,94383
2015-03-26T00:31:56.118Z,94391
2015-03-26T00:32:14.823Z,94405
2015-03-26T00:32:33.901Z,94380
2015-03-26T00:32:52.464Z,94400
2015-03-26T00:33:11.028Z,94386
2015-03-26T00:33:29.481Z,94386
2015-03-26T00:33:47.841Z,94389
2015-03-26T00:34:06.219Z,94386
2015-03-26T00:34:24.687Z,94383
2015-03-26T00:34:42.844Z,94392
2015-03-26T00:35:01.359Z,94392
2015-03-26T00:35:19.736Z,94395
2015-03-26T00:35:38.221Z,94386
2015-03-26T00:35:56.783Z,94386
2015-03-26T00:36:15.269Z,94383
2015-03-26T00:36:33.832Z,94383
2015-03-26T00:36:52.269Z,94382
2015-03-26T00:37:10.726Z,94394
2015-03-26T00:37:29.179Z,94391
2015-03-26T00:37:47.694Z,94388
2015-03-26T00:38:06.147Z,94382
2015-03-26T00:38:24.696Z,94388
2015-03-26T00:38:43.056Z,94379
2015-03-26T00:39:01.462Z,94385
2015-03-26T00:39:19.199Z,94391
2015-03-26T00:39:37.559Z,94391
2015-03-26T00:39:55.965Z,94389
2015-03-26T00:40:13.686Z,94380
2015-03-26T00:40:32.061Z,94383
2015-03-26T00:40:50.576Z,94374
2015-03-26T00:41:08.954Z,94383
2015-03-26T00:41:27.314Z,94388
2015-03-26T00:41:45.689Z,94383
2015-03-26T00:42:04.079Z,94382
2015-03-26T00:42:22.488Z,94388
2015-03-26T00:42:40.863Z,94388
2015-03-26T00:42:59.441Z,94388
2015-03-26T00:43:17.974Z,94385
2015-03-26T00:43:36.396Z,94379
2015-03-26T00:43:54.771Z,94382
2015-03-26T00:44:13.210Z,94388
2015-03-26T00:44:31.585Z,94385
2015-03-26T00:44:50.070Z,94387
2015-03-26T00:45:08.429Z,94393
2015-03-26T00:45:26.885Z,94390
2015-03-26T00:45:45.260Z,94393
2015-03-26T00:46:03.635Z,94370
2015-03-26T00:46:22.075Z,94384
2015-03-26T00:46:40.731Z,94393
2015-03-26T00:46:59.090Z,94381
2015-03-26T00:47:17.514Z,94381
2015-03-26T00:47:35.936Z,94392
2015-03-26T00:47:54.452Z,94389
2015-03-26T00:48:12.967Z,94395
2015-03-26T00:48:31.345Z,94383
2015-03-26T00:48:49.861Z,94394
2015-03-26T00:49:08.361Z,94394
2015-03-26T00:49:26.722Z,94389
2015-03-26T00:49:45.160Z,94389
2015-03-26T00:50:03.535Z,94392
2015-03-26T00:50:21.896Z,94389
2015-03-26T00:50:40.427Z,94392
2015-03-26T00:50:58.990Z,94387
2015-03-26T00:51:17.414Z,94387
2015-03-26T00:51:36.070Z,94381
2015-03-26T00:51:54.445Z,94384
2015-03-26T00:52:12.961Z,94393
2015-03-26T00:52:31.479Z,94387
2015-03-26T00:52:49.870Z,94387
2015-03-26T00:53:08.386Z,94385
2015-03-26T00:53:26.888Z,94391
2015-03-26T00:53:45.263Z,94388
2015-03-26T00:54:03.747Z,94391
2015-03-26T00:54:22.172Z,94382
2015-03-26T00:54:40.062Z,94382
2015-03-26T00:54:58.641Z,94391
2015-03-26T00:55:17.252Z,94385
2015-03-26T00:55:35.689Z,94388
2015-03-26T00:55:54.252Z,94388
2015-03-26T00:56:12.627Z,94385
2015-03-26T00:56:31.176Z,94385
2015-03-26T00:56:49.676Z,94393
2015-03-26T00:57:08.270Z,94387
2015-03-26T00:57:26.866Z,94379
2015-03-26T00:57:45.444Z,94387
2015-03-26T00:58:03.944Z,94387
2015-03-26T00:58:22.509Z,94387
2015-03-26T00:58:41.087Z,94390
2015-03-26T00:58:59.462Z,94388
2015-03-26T00:59:17.839Z,94391
2015-03-26T00:59:36.261Z,94393
2015-03-26T00:59:54.667Z,94385
2015-03-26T01:00:13.120Z,94393
2015-03-26T01:00:31.685Z,94385
2015-03-26T01:00:50.216Z,94391
2015-03-26T01:01:08.622Z,94388
2015-03-26T01:01:27.359Z,94394
2015-03-26T01:01:45.827Z,94397
2015-03-26T01:02:04.343Z,94397
2015-03-26T01:02:22.752Z,94388
2015-03-26T01:02:41.221Z,94391
2015-03-26T01:02:59.659Z,94391
2015-03-26T01:03:18.205Z,94385
2015-03-26T01:03:36.707Z,94391
2015-03-26T01:03:55.364Z,94394
2015-03-26T01:04:13.786Z,94394
2015-03-26T01:04:32.179Z,94383
2015-03-26T01:04:50.570Z,94389
2015-03-26T01:05:08.960Z,94389
2015-03-26T01:05:27.369Z,94394
2015-03-26T01:05:45.759Z,94388
2015-03-26T01:06:03.587Z,94388
2015-03-26T01:06:21.964Z,94382
2015-03-26T01:06:40.496Z,94391
2015-03-26T01:06:58.933Z,94388
2015-03-26T01:07:17.402Z,94393
2015-03-26T01:07:35.858Z,94391
2015-03-26T01:07:54.296Z,94385
2015-03-26T01:08:12.905Z,94388
2015-03-26T01:08:31.626Z,94394
2015-03-26T01:08:50.298Z,94397
2015-03-26T01:09:08.735Z,94391
2015-03-26T01:09:27.190Z,94388
2015-03-26T01:09:45.784Z,94402
2015-03-26T01:10:04.190Z,94405
2015-03-26T01:10:22.753Z,94391
2015-03-26T01:10:41.114Z,94408
2015-03-26T01:10:59.817Z,94405
2015-03-26T01:11:18.177Z,94394
2015-03-26T01:11:36.648Z,94400
2015-03-26T01:11:55.023Z,94394
2015-03-26T01:12:13.695Z,94396
2015-03-26T01:12:32.150Z,94391
2015-03-26T01:12:50.744Z,94405
2015-03-26T01:13:09.182Z,94402
2015-03-26T01:13:27.559Z,94402
2015-03-26T01:13:46.152Z,94388
2015-03-26T01:14:04.527Z,94396
2015-03-26T01:14:23.090Z,94399
2015-03-26T01:14:41.467Z,94402
2015-03-26T01:14:59.920Z,94404
2015-03-26T01:15:18.467Z,94399
2015-03-26T01:15:36.923Z,94398
2015-03-26T01:15:55.548Z,94409
2015-03-26T01:16:13.907Z,94401
2015-03-26T01:16:32.426Z,94403
2015-03-26T01:16:51.004Z,94400
2015-03-26T01:17:09.442Z,94400
2015-03-26T01:17:27.912Z,94400
2015-03-26T01:17:47.475Z,94397
2015-03-26T01:18:06.084Z,94397
2015-03-26T01:18:24.537Z,94393
2015-03-26T01:18:43.227Z,94402
2015-03-26T01:19:01.742Z,94404
2015-03-26T01:19:20.586Z,94401
2015-03-26T01:19:39.010Z,94407
2015-03-26T01:19:57.463Z,94407
2015-03-26T01:20:15.916Z,94402
2015-03-26T01:20:34.419Z,94405
2015-03-26T01:20:52.997Z,94413
2015-03-26T01:21:11.638Z,94404
2015-03-26T01:21:30.171Z,94407
2015-03-26T01:21:48.937Z,94408
2015-03-26T01:22:07.515Z,94413
2015-03-26T01:22:25.921Z,94413
2015-03-26T01:22:44.548Z,94408
2015-03-26T01:23:03.126Z,94408
2015-03-26T01:23:21.923Z,94416
2015-03-26T01:23:40.411Z,94419
2015-03-26T01:23:58.911Z,94410
2015-03-26T01:24:17.567Z,94416
2015-03-26T01:24:36.116Z,94427
2015-03-26T01:24:54.710Z,94415
2015-03-26T01:25:13.366Z,94424
2015-03-26T01:25:31.741Z,94427
2015-03-26T01:25:50.166Z,94419
2015-03-26T01:26:08.650Z,94422
2015-03-26T01:26:27.556Z,94416
2015-03-26T01:26:46.104Z,94420
2015-03-26T01:27:04.557Z,94422
2015-03-26T01:27:23.167Z,94420
2015-03-26T01:27:41.670Z,94429
2015-03-26T01:28:00.232Z,94426
2015-03-26T01:28:18.748Z,94434
2015-03-26T01:28:37.578Z,94436
2015-03-26T01:28:55.984Z,94426
2015-03-26T01:29:14.703Z,94429
2015-03-26T01:29:33.078Z,94436
2015-03-26T01:29:51.659Z,94433
2015-03-26T01:30:10.222Z,94439
2015-03-26T01:30:28.612Z,94433
2015-03-26T01:30:47.099Z,94436
2015-03-26T01:31:05.692Z,94436
2015-03-26T01:31:24.099Z,94433
2015-03-26T01:31:42.882Z,94439
2015-03-26T01:32:01.444Z,94436
2015-03-26T01:32:20.116Z,94442
2015-03-26T01:32:38.494Z,94445
2015-03-26T01:32:56.885Z,94442
2015-03-26T01:33:15.416Z,94439
2015-03-26T01:33:33.900Z,94445
2015-03-26T01:33:52.699Z,94451
2015-03-26T01:34:11.152Z,94445
2015-03-26T01:34:29.793Z,94439
2015-03-26T01:34:48.202Z,94448
2015-03-26T01:35:07.280Z,94442
2015-03-26T01:35:25.874Z,94445
2015-03-26T01:35:44.642Z,94448
2015-03-26T01:36:03.204Z,94446
2015-03-26T01:36:21.782Z,94446
2015-03-26T01:36:40.753Z,94444
2015-03-26T01:36:59.144Z,94438
2015-03-26T01:37:17.706Z,94447
2015-03-26T01:37:36.097Z,94447
2015-03-26T01:37:54.505Z,94447
2015-03-26T01:38:13.208Z,94447
2015-03-26T01:38:31.646Z,94444
2015-03-26T01:38:50.351Z,94441
2015-03-26T01:39:08.976Z,94447
2015-03-26T01:39:27.429Z,94441
2015-03-26T01:39:45.166Z,94447
2015-03-26T01:40:03.698Z,94447
2015-03-26T01:40:22.229Z,94441
2015-03-26T01:40:40.700Z,94441
2015-03-26T01:40:59.387Z,94444
2015-03-26T01:41:17.778Z,94444
2015-03-26T01:41:36.215Z,94438
2015-03-26T01:41:54.578Z,94447
2015-03-26T01:42:13.359Z,94436
2015-03-26T01:42:32.000Z,94439
2015-03-26T01:42:50.423Z,94444
2015-03-26T01:43:08.861Z,94447
2015-03-26T01:43:27.845Z,94450
2015-03-26T01:43:46.394Z,94439
2015-03-26T01:44:04.925Z,94445
2015-03-26T01:44:23.629Z,94453
2015-03-26T01:44:42.302Z,94453
2015-03-26T01:45:00.693Z,94456
2015-03-26T01:45:19.224Z,94448
2015-03-26T01:45:37.912Z,94439
2015-03-26T01:45:56.523Z,94448
2015-03-26T01:46:15.039Z,94442
2015-03-26T01:46:33.914Z,94453
2015-03-26T01:46:52.604Z,94445
2015-03-26T01:47:11.214Z,94453
2015-03-26T01:47:29.651Z,94453
2015-03-26T01:47:48.091Z,94459
2015-03-26T01:48:06.638Z,94451
2015-03-26T01:48:25.466Z,94451
2015-03-26T01:48:43.922Z,94456
2015-03-26T01:49:02.516Z,94453
2015-03-26T01:49:21.172Z,94459
2015-03-26T01:49:39.641Z,94462
2015-03-26T01:49:58.096Z,94459
2015-03-26T01:50:16.674Z,94462
2015-03-26T01:50:35.486Z,94465
2015-03-26T01:50:54.270Z,94459
2015-03-26T01:51:12.801Z,94459
2015-03-26T01:51:31.410Z,94462
2015-03-26T01:51:49.929Z,94460
2015-03-26T01:52:08.351Z,94448
2015-03-26T01:52:26.819Z,94457
2015-03-26T01:52:45.571Z,94462
2015-03-26T01:53:04.025Z,94460
2015-03-26T01:53:22.696Z,94457
2015-03-26T01:53:41.071Z,94454
2015-03-26T01:53:59.636Z,94457
2015-03-26T01:54:18.089Z,94460
2015-03-26T01:54:36.652Z,94463
2015-03-26T01:54:55.372Z,94460
2015-03-26T01:55:13.935Z,94449
2015-03-26T01:55:32.857Z,94457
2015-03-26T01:55:51.625Z,94457
2015-03-26T01:56:10.125Z,94460
2015-03-26T01:56:28.703Z,94458
2015-03-26T01:56:47.299Z,94460
2015-03-26T01:57:05.846Z,94454
2015-03-26T01:57:24.424Z,94451
2015-03-26T01:57:42.877Z,94460
2015-03-26T01:58:01.676Z,94454
2015-03-26T01:58:20.411Z,94459
2015-03-26T01:58:38.817Z,94448
2015-03-26T01:58:57.257Z,94453
2015-03-26T01:59:15.851Z,94447
2015-03-26T01:59:34.507Z,94444
2015-03-26T01:59:53.151Z,94452
2015-03-26T02:00:11.573Z,94452
2015-03-26T02:00:30.323Z,94447
2015-03-26T02:00:49.403Z,94452
2015-03-26T02:01:07.778Z,94455
2015-03-26T02:01:26.278Z,94452
2015-03-26T02:01:44.653Z,94447
2015-03-26T02:02:03.139Z,94446
2015-03-26T02:02:21.686Z,94449
2015-03-26T02:02:40.108Z,94441
2015-03-26T02:02:58.657Z,94452
2015-03-26T02:03:17.079Z,94446
2015-03-26T02:03:35.516Z,94452
2015-03-26T02:03:53.926Z,94454
2015-03-26T02:04:12.379Z,94452
2015-03-26T02:04:31.097Z,94454
2015-03-26T02:04:49.459Z,94460
2015-03-26T02:05:08.303Z,94460
2015-03-26T02:05:26.709Z,94454
2015-03-26T02:05:45.115Z,94454
2015-03-26T02:06:03.601Z,94456
2015-03-26T02:06:22.070Z,94459
2015-03-26T02:06:40.773Z,94465
2015-03-26T02:06:59.369Z,94462
2015-03-26T02:07:17.728Z,94465
2015-03-26T02:07:36.322Z,94468
2015-03-26T02:07:54.763Z,94462
2015-03-26T02:08:13.356Z,94465
2015-03-26T02:08:31.888Z,94474
2015-03-26T02:08:50.530Z,94471
2015-03-26T02:09:08.952Z,94477
2015-03-26T02:09:27.483Z,94474
2015-03-26T02:09:45.890Z,94469
2015-03-26T02:10:04.471Z,94469
2015-03-26T02:10:22.877Z,94477
2015-03-26T02:10:41.252Z,94475
2015-03-26T02:11:00.176Z,94466
2015-03-26T02:11:18.754Z,94474
2015-03-26T02:11:37.348Z,94477
2015-03-26T02:11:55.944Z,94480
2015-03-26T02:12:14.584Z,94469
2015-03-26T02:12:32.990Z,94472
2015-03-26T02:12:51.728Z,94472
2015-03-26T02:13:10.181Z,94475
2015-03-26T02:13:28.650Z,94472
2015-03-26T02:13:47.212Z,94467
2015-03-26T02:14:05.682Z,94476
2015-03-26T02:14:24.041Z,94476
2015-03-26T02:14:42.448Z,94482
2015-03-26T02:15:00.810Z,94473
2015-03-26T02:15:19.247Z,94470
2015-03-26T02:15:37.685Z,94478
2015-03-26T02:15:56.124Z,94475
2015-03-26T02:16:14.656Z,94473
2015-03-26T02:16:33.031Z,94478
2015-03-26T02:16:51.468Z,94478
2015-03-26T02:17:09.845Z,94478
2015-03-26T02:17:28.267Z,94473
2015-03-26T02:17:46.736Z,94478
2015-03-26T02:18:05.504Z,94470
2015-03-26T02:18:23.895Z,94476
2015-03-26T02:18:42.317Z,94479
2015-03-26T02:19:00.944Z,94468
2015-03-26T02:19:19.444Z,94482
2015-03-26T02:19:38.069Z,94471
2015-03-26T02:19:56.649Z,94465
2015-03-26T02:20:15.055Z,94471
2015-03-26T02:20:33.524Z,94468
2015-03-26T02:20:52.008Z,94473
2015-03-26T02:21:10.621Z,94476
2015-03-26T02:21:29.465Z,94479
2015-03-26T02:21:47.949Z,94482
2015-03-26T02:22:06.326Z,94480
2015-03-26T02:22:24.904Z,94471
2015-03-26T02:22:43.310Z,94477
2015-03-26T02:23:01.376Z,94480
2015-03-26T02:23:19.954Z,94485
2015-03-26T02:23:38.563Z,94468
2015-03-26T02:23:57.112Z,94471
2015-03-26T02:24:15.550Z,94471
2015-03-26T02:24:34.081Z,94479
2015-03-26T02:24:52.534Z,94479
2015-03-26T02:25:10.974Z,94488
2015-03-26T02:25:29.302Z,94477
2015-03-26T02:25:47.927Z,94482
2015-03-26T02:26:06.383Z,94477
2015-03-26T02:26:24.820Z,94474
2015-03-26T02:26:43.227Z,94480
2015-03-26T02:27:01.603Z,94480
2015-03-26T02:27:20.040Z,94483
2015-03-26T02:27:38.556Z,94480
2015-03-26T02:27:57.012Z,94477
2015-03-26T02:28:15.434Z,94483
2015-03-26T02:28:33.902Z,94478
2015-03-26T02:28:52.277Z,94484
2015-03-26T02:29:10.765Z,94478
2015-03-26T02:29:29.109Z,94478
2015-03-26T02:29:47.499Z,94484
2015-03-26T02:30:06.126Z,94487
2015-03-26T02:30:24.501Z,94478
2015-03-26T02:30:42.861Z,94470
2015-03-26T02:31:01.378Z,94484
2015-03-26T02:31:19.769Z,94484
2015-03-26T02:31:38.144Z,94481
2015-03-26T02:31:56.550Z,94487
2015-03-26T02:32:14.990Z,94470
2015-03-26T02:32:32.771Z,94484
2015-03-26T02:32:51.161Z,94478
2015-03-26T02:33:09.602Z,94478
2015-03-26T02:33:28.008Z,94478
2015-03-26T02:33:46.383Z,94478
2015-03-26T02:34:04.760Z,94478
2015-03-26T02:34:23.245Z,94478
2015-03-26T02:34:41.713Z,94481
2015-03-26T02:35:00.388Z,94478
2015-03-26T02:35:18.826Z,94481
2015-03-26T02:35:37.529Z,94479
2015-03-26T02:35:55.919Z,94479
2015-03-26T02:36:14.343Z,94473
2015-03-26T02:36:32.781Z,94473
2015-03-26T02:36:51.343Z,94482
2015-03-26T02:37:09.908Z,94480
2015-03-26T02:37:28.408Z,94474
2015-03-26T02:37:46.861Z,94486
2015-03-26T02:38:05.348Z,94477
2015-03-26T02:38:23.833Z,94475
2015-03-26T02:38:42.223Z,94484
2015-03-26T02:39:00.803Z,94478
2015-03-26T02:39:19.225Z,94475
2015-03-26T02:39:37.632Z,94481
2015-03-26T02:39:55.991Z,94481
2015-03-26T02:40:14.540Z,94481
2015-03-26T02:40:33.009Z,94481
2015-03-26T02:40:51.680Z,94487
2015-03-26T02:41:10.168Z,94484
2015-03-26T02:41:28.715Z,94484
2015-03-26T02:41:47.090Z,94478
2015-03-26T02:42:05.544Z,94492
2015-03-26T02:42:23.919Z,94489
2015-03-26T02:42:42.356Z,94498
2015-03-26T02:43:00.716Z,94492
2015-03-26T02:43:19.094Z,94492
2015-03-26T02:43:37.469Z,94487
2015-03-26T02:43:55.969Z,94484
2015-03-26T02:44:14.362Z,94493
2015-03-26T02:44:32.815Z,94490
2015-03-26T02:44:51.222Z,94487
2015-03-26T02:45:09.691Z,94493
2015-03-26T02:45:28.207Z,94499
2015-03-26T02:45:46.613Z,94490
2015-03-26T02:46:05.069Z,94496
2015-03-26T02:46:23.694Z,94499
2015-03-26T02:46:42.257Z,94496
2015-03-26T02:47:00.632Z,94499
2015-03-26T02:47:19.337Z,94505
2015-03-26T02:47:37.915Z,94505
2015-03-26T02:47:56.321Z,94499
2015-03-26T02:48:14.948Z,94505
2015-03-26T02:48:33.339Z,94505
2015-03-26T02:48:52.058Z,94505
2015-03-26T02:49:09.826Z,94507
2015-03-26T02:49:28.420Z,94510
2015-03-26T02:49:46.780Z,94504
2015-03-26T02:50:05.313Z,94505
2015-03-26T02:50:23.766Z,94496
2015-03-26T02:50:42.266Z,94513
2015-03-26T02:51:00.813Z,94507
2015-03-26T02:51:19.346Z,94509
2015-03-26T02:51:37.924Z,94512
2015-03-26T02:51:56.393Z,94514
2015-03-26T02:52:14.973Z,94517
2015-03-26T02:52:33.364Z,94514
2015-03-26T02:52:51.957Z,94502
2015-03-26T02:53:10.820Z,94513
2015-03-26T02:53:29.476Z,94510
2015-03-26T02:53:47.914Z,94510
2015-03-26T02:54:06.369Z,94504
2015-03-26T02:54:24.962Z,94513
2015-03-26T02:54:43.353Z,94505
2015-03-26T02:55:02.009Z,94513
2015-03-26T02:55:20.527Z,94518
2015-03-26T02:55:38.980Z,94523
2015-03-26T02:55:57.652Z,94516
2015-03-26T02:56:16.092Z,94513
2015-03-26T02:56:34.546Z,94524
2015-03-26T02:56:53.092Z,94524
2015-03-26T02:57:11.548Z,94513
2015-03-26T02:57:29.985Z,94521
2015-03-26T02:57:48.469Z,94524
2015-03-26T02:58:06.957Z,94521
2015-03-26T02:58:25.551Z,94516
2015-03-26T02:58:43.972Z,94516
2015-03-26T02:59:02.582Z,94517
2015-03-26T02:59:21.021Z,94523
2015-03-26T02:59:39.412Z,94517
2015-03-26T02:59:57.928Z,94515
2015-03-26T03:00:15.821Z,94517
2015-03-26T03:00:34.259Z,94522
2015-03-26T03:00:52.806Z,94517
2015-03-26T03:01:11.213Z,94517
2015-03-26T03:01:29.932Z,94522
2015-03-26T03:01:48.369Z,94522
2015-03-26T03:02:06.793Z,94517
2015-03-26T03:02:24.512Z,94517
2015-03-26T03:02:43.277Z,94520
2015-03-26T03:03:01.730Z,94515
2015-03-26T03:03:20.640Z,94515
2015-03-26T03:03:39.202Z,94522
2015-03-26T03:03:57.608Z,94528
2015-03-26T03:04:16.361Z,94522
2015-03-26T03:04:34.783Z,94524
2015-03-26T03:04:53.283Z,94524
2015-03-26T03:05:11.879Z,94524
2015-03-26T03:05:30.410Z,94521
2015-03-26T03:05:48.988Z,94530
2015-03-26T03:06:07.490Z,94521
2015-03-26T03:06:25.959Z,94521
2015-03-26T03:06:44.412Z,94524
2015-03-26T03:07:02.787Z,94521
2015-03-26T03:07:21.258Z,94527
2015-03-26T03:07:39.961Z,94527
2015-03-26T03:07:58.602Z,94519
2015-03-26T03:08:17.104Z,94517
2015-03-26T03:08:35.557Z,94528
2015-03-26T03:08:53.932Z,94525
2015-03-26T03:09:12.513Z,94525
2015-03-26T03:09:30.935Z,94526
2015-03-26T03:09:49.747Z,94513
2015-03-26T03:10:08.187Z,94532
2015-03-26T03:10:26.781Z,94521
2015-03-26T03:10:45.546Z,94524
2015-03-26T03:11:04.046Z,94524
2015-03-26T03:11:22.642Z,94521
2015-03-26T03:11:41.048Z,94524
2015-03-26T03:11:59.689Z,94522
2015-03-26T03:12:18.286Z,94522
2015-03-26T03:12:36.739Z,94530
2015-03-26T03:12:55.395Z,94527
2015-03-26T03:13:13.913Z,94524
2015-03-26T03:13:32.397Z,94527
2015-03-26T03:13:51.006Z,94524
2015-03-26T03:14:09.541Z,94527
2015-03-26T03:14:27.525Z,94524
2015-03-26T03:14:46.088Z,94518
2015-03-26T03:15:04.525Z,94527
2015-03-26T03:15:22.902Z,94524
2015-03-26T03:15:41.511Z,94533
2015-03-26T03:16:00.230Z,94530
2015-03-26T03:16:18.764Z,94538
2015-03-26T03:16:37.389Z,94533
2015-03-26T03:16:55.983Z,94533
2015-03-26T03:17:14.515Z,94527
2015-03-26T03:17:32.922Z,94532
2015-03-26T03:17:51.344Z,94532
2015-03-26T03:18:09.984Z,94535
2015-03-26T03:18:28.503Z,94535
2015-03-26T03:18:47.268Z,94538
2015-03-26T03:19:05.972Z,94532
2015-03-26T03:19:24.474Z,94543
2015-03-26T03:19:42.958Z,94532
2015-03-26T03:20:01.692Z,94526
2015-03-26T03:20:20.085Z,94535
2015-03-26T03:20:38.647Z,94532
2015-03-26T03:20:57.210Z,94543
2015-03-26T03:21:15.697Z,94524
2015-03-26T03:21:34.322Z,94529
2015-03-26T03:21:52.744Z,94538
2015-03-26T03:22:11.354Z,94536
2015-03-26T03:22:29.809Z,94533
2015-03-26T03:22:48.231Z,94533
2015-03-26T03:23:06.621Z,94539
2015-03-26T03:23:25.108Z,94534
2015-03-26T03:23:43.514Z,94531
2015-03-26T03:24:02.248Z,94534
2015-03-26T03:24:20.673Z,94531
2015-03-26T03:24:39.314Z,94542
2015-03-26T03:24:57.736Z,94537
2015-03-26T03:25:16.378Z,94542
2015-03-26T03:25:34.988Z,94533
2015-03-26T03:25:53.659Z,94536
2015-03-26T03:26:12.238Z,94539
2015-03-26T03:26:30.786Z,94525
2015-03-26T03:26:48.521Z,94525
2015-03-26T03:27:07.036Z,94539
2015-03-26T03:27:25.663Z,94534
2015-03-26T03:27:43.398Z,94534
2015-03-26T03:28:01.804Z,94531
2015-03-26T03:28:20.276Z,94536
2015-03-26T03:28:38.698Z,94528
2015-03-26T03:28:57.120Z,94536
2015-03-26T03:29:15.543Z,94536
2015-03-26T03:29:34.090Z,94536
2015-03-26T03:29:52.606Z,94536
2015-03-26T03:30:10.981Z,94539
2015-03-26T03:30:29.500Z,94539
2015-03-26T03:30:48.078Z,94542
2015-03-26T03:31:06.640Z,94539
2015-03-26T03:31:25.173Z,94536
2015-03-26T03:31:43.689Z,94542
2015-03-26T03:32:02.236Z,94542
2015-03-26T03:32:20.082Z,94547
2015-03-26T03:32:38.441Z,94539
2015-03-26T03:32:57.050Z,94544
2015-03-26T03:33:15.568Z,94542
2015-03-26T03:33:34.193Z,94544
2015-03-26T03:33:52.756Z,94547
2015-03-26T03:34:11.256Z,94538
2015-03-26T03:34:29.852Z,94541
2015-03-26T03:34:48.274Z,94544
2015-03-26T03:35:06.868Z,94553
2015-03-26T03:35:25.354Z,94558
2015-03-26T03:35:43.776Z,94553
2015-03-26T03:36:02.339Z,94550
2015-03-26T03:36:21.045Z,94547
2015-03-26T03:36:39.639Z,94553
2015-03-26T03:36:58.076Z,94553
2015-03-26T03:37:16.703Z,94556
2015-03-26T03:37:35.562Z,94553
2015-03-26T03:37:54.094Z,94554
2015-03-26T03:38:12.891Z,94542
2015-03-26T03:38:31.752Z,94548
2015-03-26T03:38:50.158Z,94562
2015-03-26T03:39:07.939Z,94551
2015-03-26T03:39:26.504Z,94554
2015-03-26T03:39:45.098Z,94551
2015-03-26T03:40:03.770Z,94554
2015-03-26T03:40:22.273Z,94565
2015-03-26T03:40:40.804Z,94560
2015-03-26T03:40:59.304Z,94560
2015-03-26T03:41:17.868Z,94554
2015-03-26T03:41:36.337Z,94557
2015-03-26T03:41:54.868Z,94557
2015-03-26T03:42:13.275Z,94555
2015-03-26T03:42:31.777Z,94552
2015-03-26T03:42:49.870Z,94564
2015-03-26T03:43:08.370Z,94561
2015-03-26T03:43:27.045Z,94558
2015-03-26T03:43:45.514Z,94555
2015-03-26T03:44:03.998Z,94567
2015-03-26T03:44:22.594Z,94559
2015-03-26T03:44:41.078Z,94561
2015-03-26T03:44:59.453Z,94556
2015-03-26T03:45:17.844Z,94564
2015-03-26T03:45:36.269Z,94573
2015-03-26T03:45:54.878Z,94561
2015-03-26T03:46:13.535Z,94567
2015-03-26T03:46:31.958Z,94567
2015-03-26T03:46:50.333Z,94569
2015-03-26T03:47:08.693Z,94572
2015-03-26T03:47:27.351Z,94572
2015-03-26T03:47:46.242Z,94572
2015-03-26T03:48:05.023Z,94581
2015-03-26T03:48:23.588Z,94566
2015-03-26T03:48:42.135Z,94572
2015-03-26T03:49:00.870Z,94569
2015-03-26T03:49:19.526Z,94574
2015-03-26T03:49:38.294Z,94566
2015-03-26T03:49:56.981Z,94574
2015-03-26T03:50:15.497Z,94563
2015-03-26T03:50:33.983Z,94571
2015-03-26T03:50:52.671Z,94577
2015-03-26T03:51:11.217Z,94574
2015-03-26T03:51:29.719Z,94569
2015-03-26T03:51:48.298Z,94577
2015-03-26T03:52:07.063Z,94574
2015-03-26T03:52:25.551Z,94580
2015-03-26T03:52:43.988Z,94577
2015-03-26T03:53:02.472Z,94574
2015-03-26T03:53:20.957Z,94574
2015-03-26T03:53:38.834Z,94577
2015-03-26T03:53:57.787Z,94579
2015-03-26T03:54:16.365Z,94577
2015-03-26T03:54:34.976Z,94574
2015-03-26T03:54:53.555Z,94585
2015-03-26T03:55:12.180Z,94577
2015-03-26T03:55:30.792Z,94583
2015-03-26T03:55:49.526Z,94580
2015-03-26T03:56:07.995Z,94580
2015-03-26T03:56:26.622Z,94592
2015-03-26T03:56:44.981Z,94589
2015-03-26T03:57:03.450Z,94586
2015-03-26T03:57:21.950Z,94583
2015-03-26T03:57:40.577Z,94586
2015-03-26T03:57:58.999Z,94589
2015-03-26T03:58:17.765Z,94589